sensor_id;sensor_type;location;lat;lon;timestamp;temperature;humidity
66722;SHT31;53633;49.932;10.884;2023-04-25T00:01:39;9.30;83.33
66722;SHT31;53633;49.932;10.884;2023-04-25T00:04:07;9.00;84.91
66722;SHT31;53633;49.932;10.884;2023-04-25T00:06:34;8.99;84.04
66722;SHT31;53633;49.932;10.884;2023-04-25T00:09:01;9.05;84.31
66722;SHT31;53633;49.932;10.884;2023-04-25T00:11:28;9.00;84.45
66722;SHT31;53633;49.932;10.884;2023-04-25T00:13:55;8.88;84.85
66722;SHT31;53633;49.932;10.884;2023-04-25T00:16:21;8.78;85.29
66722;SHT31;53633;49.932;10.884;2023-04-25T00:18:49;8.79;85.32
66722;SHT31;53633;49.932;10.884;2023-04-25T00:21:16;8.82;85.24
66722;SHT31;53633;49.932;10.884;2023-04-25T00:23:43;8.80;85.26
66722;SHT31;53633;49.932;10.884;2023-04-25T00:26:09;8.75;85.41
66722;SHT31;53633;49.932;10.884;2023-04-25T00:28:36;8.67;85.66
66722;SHT31;53633;49.932;10.884;2023-04-25T00:31:03;8.64;85.69
66722;SHT31;53633;49.932;10.884;2023-04-25T00:33:29;8.62;85.67
66722;SHT31;53633;49.932;10.884;2023-04-25T00:35:57;8.51;86.46
66722;SHT31;53633;49.932;10.884;2023-04-25T00:38:24;8.52;86.31
66722;SHT31;53633;49.932;10.884;2023-04-25T00:40:51;8.55;85.64
66722;SHT31;53633;49.932;10.884;2023-04-25T00:43:17;8.60;86.06
66722;SHT31;53633;49.932;10.884;2023-04-25T00:45:47;8.55;86.29
66722;SHT31;53633;49.932;10.884;2023-04-25T00:48:13;8.57;86.54
66722;SHT31;53633;49.932;10.884;2023-04-25T00:50:40;8.58;86.74
66722;SHT31;53633;49.932;10.884;2023-04-25T00:53:09;8.58;86.57
66722;SHT31;53633;49.932;10.884;2023-04-25T00:55:35;8.73;85.85
66722;SHT31;53633;49.932;10.884;2023-04-25T00:58:02;8.69;86.28
66722;SHT31;53633;49.932;10.884;2023-04-25T01:00:29;8.69;86.19
66722;SHT31;53633;49.932;10.884;2023-04-25T01:02:56;8.71;85.72
66722;SHT31;53633;49.932;10.884;2023-04-25T01:05:23;8.65;86.15
66722;SHT31;53633;49.932;10.884;2023-04-25T01:07:49;8.73;85.04
66722;SHT31;53633;49.932;10.884;2023-04-25T01:10:18;8.67;86.30
66722;SHT31;53633;49.932;10.884;2023-04-25T01:12:44;8.55;86.36
66722;SHT31;53633;49.932;10.884;2023-04-25T01:15:11;8.57;85.60
66722;SHT31;53633;49.932;10.884;2023-04-25T01:17:38;8.58;85.99
66722;SHT31;53633;49.932;10.884;2023-04-25T01:20:05;8.72;84.75
66722;SHT31;53633;49.932;10.884;2023-04-25T01:22:34;8.67;85.13
66722;SHT31;53633;49.932;10.884;2023-04-25T01:25:01;8.62;86.05
66722;SHT31;53633;49.932;10.884;2023-04-25T01:27:28;8.68;85.21
66722;SHT31;53633;49.932;10.884;2023-04-25T01:29:54;8.51;85.91
66722;SHT31;53633;49.932;10.884;2023-04-25T01:32:22;8.48;86.18
66722;SHT31;53633;49.932;10.884;2023-04-25T01:34:49;8.52;85.37
66722;SHT31;53633;49.932;10.884;2023-04-25T01:37:16;8.57;85.42
66722;SHT31;53633;49.932;10.884;2023-04-25T01:39:44;8.55;85.46
66722;SHT31;53633;49.932;10.884;2023-04-25T01:42:12;8.51;86.29
66722;SHT31;53633;49.932;10.884;2023-04-25T01:44:39;8.48;86.21
66722;SHT31;53633;49.932;10.884;2023-04-25T01:47:05;8.48;85.87
66722;SHT31;53633;49.932;10.884;2023-04-25T01:49:32;8.67;85.39
66722;SHT31;53633;49.932;10.884;2023-04-25T01:51:59;8.85;84.82
66722;SHT31;53633;49.932;10.884;2023-04-25T01:54:25;8.92;84.95
66722;SHT31;53633;49.932;10.884;2023-04-25T01:56:57;9.16;84.03
66722;SHT31;53633;49.932;10.884;2023-04-25T01:59:23;8.98;84.94
66722;SHT31;53633;49.932;10.884;2023-04-25T02:01:50;8.99;84.66
66722;SHT31;53633;49.932;10.884;2023-04-25T02:04:17;8.92;85.08
66722;SHT31;53633;49.932;10.884;2023-04-25T02:06:43;9.09;84.12
66722;SHT31;53633;49.932;10.884;2023-04-25T02:09:10;8.99;84.57
66722;SHT31;53633;49.932;10.884;2023-04-25T02:11:37;8.85;84.98
66722;SHT31;53633;49.932;10.884;2023-04-25T02:14:05;8.80;85.32
66722;SHT31;53633;49.932;10.884;2023-04-25T02:16:31;8.76;85.88
66722;SHT31;53633;49.932;10.884;2023-04-25T02:18:58;8.72;86.16
66722;SHT31;53633;49.932;10.884;2023-04-25T02:21:25;8.75;85.77
66722;SHT31;53633;49.932;10.884;2023-04-25T02:23:51;8.80;85.59
66722;SHT31;53633;49.932;10.884;2023-04-25T02:26:18;8.79;85.14
66722;SHT31;53633;49.932;10.884;2023-04-25T02:28:45;8.89;84.86
66722;SHT31;53633;49.932;10.884;2023-04-25T02:31:13;8.79;85.48
66722;SHT31;53633;49.932;10.884;2023-04-25T02:33:40;8.72;85.90
66722;SHT31;53633;49.932;10.884;2023-04-25T02:36:07;8.67;85.89
66722;SHT31;53633;49.932;10.884;2023-04-25T02:38:33;8.52;86.48
66722;SHT31;53633;49.932;10.884;2023-04-25T02:41:00;8.54;86.68
66722;SHT31;53633;49.932;10.884;2023-04-25T02:43:27;8.80;85.82
66722;SHT31;53633;49.932;10.884;2023-04-25T02:45:53;8.78;85.61
66722;SHT31;53633;49.932;10.884;2023-04-25T02:48:21;8.75;85.80
66722;SHT31;53633;49.932;10.884;2023-04-25T02:50:48;8.69;85.98
66722;SHT31;53633;49.932;10.884;2023-04-25T02:53:14;8.64;86.42
66722;SHT31;53633;49.932;10.884;2023-04-25T02:55:41;8.73;85.96
66722;SHT31;53633;49.932;10.884;2023-04-25T02:58:08;8.67;86.45
66722;SHT31;53633;49.932;10.884;2023-04-25T03:00:34;8.60;86.76
66722;SHT31;53633;49.932;10.884;2023-04-25T03:03:01;8.61;86.64
66722;SHT31;53633;49.932;10.884;2023-04-25T03:05:29;8.57;87.04
66722;SHT31;53633;49.932;10.884;2023-04-25T03:07:56;8.50;86.90
66722;SHT31;53633;49.932;10.884;2023-04-25T03:10:22;8.54;87.12
66722;SHT31;53633;49.932;10.884;2023-04-25T03:12:49;8.55;87.42
66722;SHT31;53633;49.932;10.884;2023-04-25T03:15:16;8.65;88.80
66722;SHT31;53633;49.932;10.884;2023-04-25T03:17:42;8.76;88.73
66722;SHT31;53633;49.932;10.884;2023-04-25T03:20:10;8.65;89.21
66722;SHT31;53633;49.932;10.884;2023-04-25T03:22:38;8.57;90.54
66722;SHT31;53633;49.932;10.884;2023-04-25T03:25:06;8.47;90.09
66722;SHT31;53633;49.932;10.884;2023-04-25T03:27:32;8.73;89.30
66722;SHT31;53633;49.932;10.884;2023-04-25T03:29:59;8.58;89.01
66722;SHT31;53633;49.932;10.884;2023-04-25T03:32:26;8.44;89.92
66722;SHT31;53633;49.932;10.884;2023-04-25T03:34:52;8.38;90.52
66722;SHT31;53633;49.932;10.884;2023-04-25T03:37:19;8.60;89.14
66722;SHT31;53633;49.932;10.884;2023-04-25T03:39:47;8.65;89.19
66722;SHT31;53633;49.932;10.884;2023-04-25T03:42:13;8.76;88.77
66722;SHT31;53633;49.932;10.884;2023-04-25T03:44:40;8.76;88.72
66722;SHT31;53633;49.932;10.884;2023-04-25T03:47:07;8.71;89.01
66722;SHT31;53633;49.932;10.884;2023-04-25T03:49:34;8.65;89.91
66722;SHT31;53633;49.932;10.884;2023-04-25T03:52:00;8.79;88.69
66722;SHT31;53633;49.932;10.884;2023-04-25T03:54:27;8.76;88.53
66722;SHT31;53633;49.932;10.884;2023-04-25T03:56:55;8.72;88.80
66722;SHT31;53633;49.932;10.884;2023-04-25T03:59:22;8.62;89.17
66722;SHT31;53633;49.932;10.884;2023-04-25T04:01:48;8.52;89.87
66722;SHT31;53633;49.932;10.884;2023-04-25T04:04:15;8.75;88.84
66722;SHT31;53633;49.932;10.884;2023-04-25T04:06:42;8.78;89.02
66722;SHT31;53633;49.932;10.884;2023-04-25T04:09:09;8.92;88.04
66722;SHT31;53633;49.932;10.884;2023-04-25T04:11:35;8.98;88.02
66722;SHT31;53633;49.932;10.884;2023-04-25T04:14:03;8.79;88.18
66722;SHT31;53633;49.932;10.884;2023-04-25T04:16:30;8.83;87.46
66722;SHT31;53633;49.932;10.884;2023-04-25T04:19:00;8.86;87.58
66722;SHT31;53633;49.932;10.884;2023-04-25T04:21:26;8.78;87.88
66722;SHT31;53633;49.932;10.884;2023-04-25T04:23:53;8.48;89.59
66722;SHT31;53633;49.932;10.884;2023-04-25T04:26:19;8.50;89.39
66722;SHT31;53633;49.932;10.884;2023-04-25T04:28:46;8.47;89.44
66722;SHT31;53633;49.932;10.884;2023-04-25T04:31:14;8.52;89.45
66722;SHT31;53633;49.932;10.884;2023-04-25T04:33:41;8.65;88.76
66722;SHT31;53633;49.932;10.884;2023-04-25T04:36:07;8.42;90.03
66722;SHT31;53633;49.932;10.884;2023-04-25T04:38:34;8.52;89.61
66722;SHT31;53633;49.932;10.884;2023-04-25T04:41:01;8.67;89.22
66722;SHT31;53633;49.932;10.884;2023-04-25T04:45:57;8.73;88.48
66722;SHT31;53633;49.932;10.884;2023-04-25T04:48:25;8.65;88.97
66722;SHT31;53633;49.932;10.884;2023-04-25T04:50:52;8.62;89.21
66722;SHT31;53633;49.932;10.884;2023-04-25T04:53:19;8.72;88.85
66722;SHT31;53633;49.932;10.884;2023-04-25T04:55:50;8.71;88.83
66722;SHT31;53633;49.932;10.884;2023-04-25T04:58:22;8.68;89.03
66722;SHT31;53633;49.932;10.884;2023-04-25T05:01:13;8.82;88.44
66722;SHT31;53633;49.932;10.884;2023-04-25T05:03:55;8.80;88.21
66722;SHT31;53633;49.932;10.884;2023-04-25T05:06:31;8.82;87.73
66722;SHT31;53633;49.932;10.884;2023-04-25T05:09:12;8.65;88.72
66722;SHT31;53633;49.932;10.884;2023-04-25T05:11:44;8.73;88.64
66722;SHT31;53633;49.932;10.884;2023-04-25T05:14:12;8.75;88.48
66722;SHT31;53633;49.932;10.884;2023-04-25T05:16:41;8.68;89.32
66722;SHT31;53633;49.932;10.884;2023-04-25T05:19:21;8.67;89.40
66722;SHT31;53633;49.932;10.884;2023-04-25T05:21:51;8.67;89.39
66722;SHT31;53633;49.932;10.884;2023-04-25T05:24:29;8.71;89.26
66722;SHT31;53633;49.932;10.884;2023-04-25T05:26:58;8.68;89.25
66722;SHT31;53633;49.932;10.884;2023-04-25T05:29:41;8.44;90.40
66722;SHT31;53633;49.932;10.884;2023-04-25T05:32:10;8.61;90.12
66722;SHT31;53633;49.932;10.884;2023-04-25T05:34:48;8.57;90.09
66722;SHT31;53633;49.932;10.884;2023-04-25T05:37:22;8.58;90.27
66722;SHT31;53633;49.932;10.884;2023-04-25T05:39:56;8.79;89.01
66722;SHT31;53633;49.932;10.884;2023-04-25T05:42:27;8.86;88.41
66722;SHT31;53633;49.932;10.884;2023-04-25T05:45:00;8.76;89.19
66722;SHT31;53633;49.932;10.884;2023-04-25T05:47:28;8.51;90.87
66722;SHT31;53633;49.932;10.884;2023-04-25T05:50:07;8.57;90.68
66722;SHT31;53633;49.932;10.884;2023-04-25T05:52:46;8.72;89.79
66722;SHT31;53633;49.932;10.884;2023-04-25T05:55:14;8.55;90.86
66722;SHT31;53633;49.932;10.884;2023-04-25T05:57:41;8.71;89.88
66722;SHT31;53633;49.932;10.884;2023-04-25T06:00:13;8.76;88.88
66722;SHT31;53633;49.932;10.884;2023-04-25T06:02:42;8.68;89.09
66722;SHT31;53633;49.932;10.884;2023-04-25T06:05:19;8.79;88.43
66722;SHT31;53633;49.932;10.884;2023-04-25T06:07:47;8.51;90.82
66722;SHT31;53633;49.932;10.884;2023-04-25T06:10:15;8.75;89.03
66722;SHT31;53633;49.932;10.884;2023-04-25T06:12:45;8.60;88.89
66722;SHT31;53633;49.932;10.884;2023-04-25T06:15:12;8.57;89.47
66722;SHT31;53633;49.932;10.884;2023-04-25T06:17:55;8.73;88.77
66722;SHT31;53633;49.932;10.884;2023-04-25T06:20:35;8.67;90.62
66722;SHT31;53633;49.932;10.884;2023-04-25T06:23:07;9.00;88.74
66722;SHT31;53633;49.932;10.884;2023-04-25T06:25:36;9.10;88.14
66722;SHT31;53633;49.932;10.884;2023-04-25T06:28:09;9.28;86.95
66722;SHT31;53633;49.932;10.884;2023-04-25T06:30:39;9.22;87.27
66722;SHT31;53633;49.932;10.884;2023-04-25T06:33:11;9.24;89.68
66722;SHT31;53633;49.932;10.884;2023-04-25T06:35:51;9.48;87.62
66722;SHT31;53633;49.932;10.884;2023-04-25T06:38:26;9.50;86.20
66722;SHT31;53633;49.932;10.884;2023-04-25T06:41:00;9.45;86.03
66722;SHT31;53633;49.932;10.884;2023-04-25T06:43:28;9.50;85.82
66722;SHT31;53633;49.932;10.884;2023-04-25T06:45:59;9.55;85.74
66722;SHT31;53633;49.932;10.884;2023-04-25T06:48:28;9.61;85.43
66722;SHT31;53633;49.932;10.884;2023-04-25T06:51:10;9.50;85.07
66722;SHT31;53633;49.932;10.884;2023-04-25T06:53:50;9.77;84.86
66722;SHT31;53633;49.932;10.884;2023-04-25T06:56:22;9.98;84.12
66722;SHT31;53633;49.932;10.884;2023-04-25T06:58:50;10.02;83.84
66722;SHT31;53633;49.932;10.884;2023-04-25T07:01:19;10.64;81.44
66722;SHT31;53633;49.932;10.884;2023-04-25T07:03:49;12.22;81.64
66722;SHT31;53633;49.932;10.884;2023-04-25T07:06:22;13.14;73.32
66722;SHT31;53633;49.932;10.884;2023-04-25T07:08:55;12.83;70.45
66722;SHT31;53633;49.932;10.884;2023-04-25T07:11:25;11.97;72.70
66722;SHT31;53633;49.932;10.884;2023-04-25T07:14:11;11.59;73.71
66722;SHT31;53633;49.932;10.884;2023-04-25T07:16:44;11.66;74.62
66722;SHT31;53633;49.932;10.884;2023-04-25T07:19:18;11.49;73.03
66722;SHT31;53633;49.932;10.884;2023-04-25T07:21:54;13.00;72.95
66722;SHT31;53633;49.932;10.884;2023-04-25T07:24:22;14.43;66.13
66722;SHT31;53633;49.932;10.884;2023-04-25T07:26:54;14.94;62.68
66722;SHT31;53633;49.932;10.884;2023-04-25T07:29:21;16.80;58.10
66722;SHT31;53633;49.932;10.884;2023-04-25T07:31:55;17.75;54.45
66722;SHT31;53633;49.932;10.884;2023-04-25T07:34:25;19.34;52.44
66722;SHT31;53633;49.932;10.884;2023-04-25T07:36:56;19.58;49.60
66722;SHT31;53633;49.932;10.884;2023-04-25T07:39:25;19.66;49.02
66722;SHT31;53633;49.932;10.884;2023-04-25T07:41:55;18.03;53.53
66722;SHT31;53633;49.932;10.884;2023-04-25T07:44:27;16.04;55.68
66722;SHT31;53633;49.932;10.884;2023-04-25T07:47:03;14.91;59.39
66722;SHT31;53633;49.932;10.884;2023-04-25T07:49:36;15.41;59.42
66722;SHT31;53633;49.932;10.884;2023-04-25T07:52:11;16.55;57.27
66722;SHT31;53633;49.932;10.884;2023-04-25T07:54:40;16.72;56.60
66722;SHT31;53633;49.932;10.884;2023-04-25T07:57:08;16.25;57.23
66722;SHT31;53633;49.932;10.884;2023-04-25T07:59:45;15.62;58.97
66722;SHT31;53633;49.932;10.884;2023-04-25T08:02:18;15.07;58.15
66722;SHT31;53633;49.932;10.884;2023-04-25T08:04:48;14.51;60.40
66722;SHT31;53633;49.932;10.884;2023-04-25T08:07:23;13.93;61.98
66722;SHT31;53633;49.932;10.884;2023-04-25T08:09:51;14.45;61.64
66722;SHT31;53633;49.932;10.884;2023-04-25T08:12:18;15.28;59.30
66722;SHT31;53633;49.932;10.884;2023-04-25T08:14:54;15.42;58.01
66722;SHT31;53633;49.932;10.884;2023-04-25T08:17:28;14.59;56.22
66722;SHT31;53633;49.932;10.884;2023-04-25T08:20:16;14.21;57.65
66722;SHT31;53633;49.932;10.884;2023-04-25T08:22:48;14.21;59.21
66722;SHT31;53633;49.932;10.884;2023-04-25T08:25:31;13.46;59.82
66722;SHT31;53633;49.932;10.884;2023-04-25T08:28:03;12.94;60.97
66722;SHT31;53633;49.932;10.884;2023-04-25T08:30:36;12.59;61.80
66722;SHT31;53633;49.932;10.884;2023-04-25T08:33:21;12.57;62.55
66722;SHT31;53633;49.932;10.884;2023-04-25T08:35:49;12.49;62.52
66722;SHT31;53633;49.932;10.884;2023-04-25T08:38:18;12.64;61.63
66722;SHT31;53633;49.932;10.884;2023-04-25T08:40:49;13.34;60.35
66722;SHT31;53633;49.932;10.884;2023-04-25T08:43:19;14.39;58.58
66722;SHT31;53633;49.932;10.884;2023-04-25T08:45:47;15.10;57.58
66722;SHT31;53633;49.932;10.884;2023-04-25T08:48:17;15.87;56.15
66722;SHT31;53633;49.932;10.884;2023-04-25T08:50:52;15.92;54.63
66722;SHT31;53633;49.932;10.884;2023-04-25T08:53:29;16.00;53.39
66722;SHT31;53633;49.932;10.884;2023-04-25T08:56:03;15.78;55.03
66722;SHT31;53633;49.932;10.884;2023-04-25T08:58:33;15.61;54.65
66722;SHT31;53633;49.932;10.884;2023-04-25T09:01:03;15.66;56.13
66722;SHT31;53633;49.932;10.884;2023-04-25T09:03:32;14.76;56.56
66722;SHT31;53633;49.932;10.884;2023-04-25T09:06:06;14.49;58.36
66722;SHT31;53633;49.932;10.884;2023-04-25T09:08:38;14.96;58.58
66722;SHT31;53633;49.932;10.884;2023-04-25T09:11:10;15.85;55.72
66722;SHT31;53633;49.932;10.884;2023-04-25T09:13:38;16.83;53.62
66722;SHT31;53633;49.932;10.884;2023-04-25T09:16:12;15.99;53.59
66722;SHT31;53633;49.932;10.884;2023-04-25T09:18:42;16.18;53.24
66722;SHT31;53633;49.932;10.884;2023-04-25T09:21:16;17.12;52.01
66722;SHT31;53633;49.932;10.884;2023-04-25T09:23:54;17.33;51.91
66722;SHT31;53633;49.932;10.884;2023-04-25T09:26:22;17.71;49.42
66722;SHT31;53633;49.932;10.884;2023-04-25T09:29:07;17.10;50.61
66722;SHT31;53633;49.932;10.884;2023-04-25T09:31:35;15.90;52.28
66722;SHT31;53633;49.932;10.884;2023-04-25T09:34:26;14.31;54.98
66722;SHT31;53633;49.932;10.884;2023-04-25T09:36:56;14.26;54.95
66722;SHT31;53633;49.932;10.884;2023-04-25T09:39:41;15.08;54.04
66722;SHT31;53633;49.932;10.884;2023-04-25T09:42:18;16.13;52.53
66722;SHT31;53633;49.932;10.884;2023-04-25T09:44:49;16.45;52.48
66722;SHT31;53633;49.932;10.884;2023-04-25T09:47:22;15.85;52.20
66722;SHT31;53633;49.932;10.884;2023-04-25T09:49:54;16.35;51.21
66722;SHT31;53633;49.932;10.884;2023-04-25T09:52:27;15.78;51.96
66722;SHT31;53633;49.932;10.884;2023-04-25T09:55:22;16.32;51.16
66722;SHT31;53633;49.932;10.884;2023-04-25T09:58:03;15.99;51.34
66722;SHT31;53633;49.932;10.884;2023-04-25T10:00:34;15.16;51.86
66722;SHT31;53633;49.932;10.884;2023-04-25T10:03:25;14.31;52.86
66722;SHT31;53633;49.932;10.884;2023-04-25T10:05:55;13.80;54.29
66722;SHT31;53633;49.932;10.884;2023-04-25T10:08:32;13.76;53.12
66722;SHT31;53633;49.932;10.884;2023-04-25T10:11:08;14.28;52.07
66722;SHT31;53633;49.932;10.884;2023-04-25T10:13:51;14.89;51.03
66722;SHT31;53633;49.932;10.884;2023-04-25T10:16:21;15.32;49.89
66722;SHT31;53633;49.932;10.884;2023-04-25T10:18:54;15.44;49.94
66722;SHT31;53633;49.932;10.884;2023-04-25T10:21:21;15.20;50.33
66722;SHT31;53633;49.932;10.884;2023-04-25T10:23:50;15.32;50.24
66722;SHT31;53633;49.932;10.884;2023-04-25T10:26:39;15.08;50.25
66722;SHT31;53633;49.932;10.884;2023-04-25T10:29:08;14.52;51.01
66722;SHT31;53633;49.932;10.884;2023-04-25T10:31:55;14.70;51.98
66722;SHT31;53633;49.932;10.884;2023-04-25T10:34:37;14.65;51.51
66722;SHT31;53633;49.932;10.884;2023-04-25T10:37:08;14.83;51.20
66722;SHT31;53633;49.932;10.884;2023-04-25T10:39:41;14.55;52.09
66722;SHT31;53633;49.932;10.884;2023-04-25T10:42:12;13.95;52.36
66722;SHT31;53633;49.932;10.884;2023-04-25T10:45:01;13.86;54.20
66722;SHT31;53633;49.932;10.884;2023-04-25T10:47:36;13.81;54.20
66722;SHT31;53633;49.932;10.884;2023-04-25T10:50:15;14.13;54.42
66722;SHT31;53633;49.932;10.884;2023-04-25T10:52:46;14.01;53.37
66722;SHT31;53633;49.932;10.884;2023-04-25T10:55:18;14.08;53.01
66722;SHT31;53633;49.932;10.884;2023-04-25T10:57:52;14.18;53.59
66722;SHT31;53633;49.932;10.884;2023-04-25T11:00:24;14.43;53.09
66722;SHT31;53633;49.932;10.884;2023-04-25T11:03:08;14.80;53.49
66722;SHT31;53633;49.932;10.884;2023-04-25T11:05:48;14.68;52.96
66722;SHT31;53633;49.932;10.884;2023-04-25T11:08:36;14.83;52.90
66722;SHT31;53633;49.932;10.884;2023-04-25T11:11:09;14.80;53.92
66722;SHT31;53633;49.932;10.884;2023-04-25T11:13:49;14.36;53.29
66722;SHT31;53633;49.932;10.884;2023-04-25T11:16:31;14.00;54.73
66722;SHT31;53633;49.932;10.884;2023-04-25T11:19:05;13.76;56.22
66722;SHT31;53633;49.932;10.884;2023-04-25T11:21:35;13.42;56.25
66722;SHT31;53633;49.932;10.884;2023-04-25T11:24:10;13.29;57.20
66722;SHT31;53633;49.932;10.884;2023-04-25T11:26:41;13.60;57.20
66722;SHT31;53633;49.932;10.884;2023-04-25T11:29:34;13.80;56.76
66722;SHT31;53633;49.932;10.884;2023-04-25T11:32:05;14.17;56.77
66722;SHT31;53633;49.932;10.884;2023-04-25T11:34:42;14.26;55.72
66722;SHT31;53633;49.932;10.884;2023-04-25T11:37:12;14.45;54.78
66722;SHT31;53633;49.932;10.884;2023-04-25T11:39:48;14.20;55.52
66722;SHT31;53633;49.932;10.884;2023-04-25T11:42:24;14.11;55.27
66722;SHT31;53633;49.932;10.884;2023-04-25T11:45:14;14.31;53.51
66722;SHT31;53633;49.932;10.884;2023-04-25T11:47:42;14.22;52.17
66722;SHT31;53633;49.932;10.884;2023-04-25T11:50:12;14.14;52.07
66722;SHT31;53633;49.932;10.884;2023-04-25T11:52:40;14.22;52.07
66722;SHT31;53633;49.932;10.884;2023-04-25T11:55:10;13.88;53.83
66722;SHT31;53633;49.932;10.884;2023-04-25T11:57:41;13.66;52.42
66722;SHT31;53633;49.932;10.884;2023-04-25T12:00:12;13.66;52.74
66722;SHT31;53633;49.932;10.884;2023-04-25T12:02:57;13.42;52.78
66722;SHT31;53633;49.932;10.884;2023-04-25T12:05:30;13.52;52.49
66722;SHT31;53633;49.932;10.884;2023-04-25T12:08:13;13.49;52.25
66722;SHT31;53633;49.932;10.884;2023-04-25T12:10:42;13.48;52.28
66722;SHT31;53633;49.932;10.884;2023-04-25T12:13:19;13.18;52.96
66722;SHT31;53633;49.932;10.884;2023-04-25T12:15:51;13.35;52.98
66722;SHT31;53633;49.932;10.884;2023-04-25T12:18:26;13.46;52.76
66722;SHT31;53633;49.932;10.884;2023-04-25T12:20:54;13.38;52.78
66722;SHT31;53633;49.932;10.884;2023-04-25T12:23:28;13.59;52.76
66722;SHT31;53633;49.932;10.884;2023-04-25T12:25:58;13.95;53.14
66722;SHT31;53633;49.932;10.884;2023-04-25T12:28:32;14.21;53.00
66722;SHT31;53633;49.932;10.884;2023-04-25T12:31:12;14.41;53.41
66722;SHT31;53633;49.932;10.884;2023-04-25T12:33:51;14.56;52.83
66722;SHT31;53633;49.932;10.884;2023-04-25T12:36:18;14.69;52.31
66722;SHT31;53633;49.932;10.884;2023-04-25T12:38:49;14.55;51.28
66722;SHT31;53633;49.932;10.884;2023-04-25T12:41:23;14.45;51.00
66722;SHT31;53633;49.932;10.884;2023-04-25T12:43:51;14.45;50.67
66722;SHT31;53633;49.932;10.884;2023-04-25T12:46:24;14.53;50.10
66722;SHT31;53633;49.932;10.884;2023-04-25T12:48:58;14.43;49.88
66722;SHT31;53633;49.932;10.884;2023-04-25T12:54:27;14.32;50.18
66722;SHT31;53633;49.932;10.884;2023-04-25T12:56:54;14.52;48.60
66722;SHT31;53633;49.932;10.884;2023-04-25T12:59:25;14.48;49.08
66722;SHT31;53633;49.932;10.884;2023-04-25T13:01:54;14.39;49.44
66722;SHT31;53633;49.932;10.884;2023-04-25T13:04:29;14.07;49.50
66722;SHT31;53633;49.932;10.884;2023-04-25T13:07:12;14.04;49.86
66722;SHT31;53633;49.932;10.884;2023-04-25T13:09:44;13.90;50.68
66722;SHT31;53633;49.932;10.884;2023-04-25T13:12:12;13.83;51.17
66722;SHT31;53633;49.932;10.884;2023-04-25T13:14:41;13.86;51.45
66722;SHT31;53633;49.932;10.884;2023-04-25T13:17:26;13.88;50.11
66722;SHT31;53633;49.932;10.884;2023-04-25T13:20:01;13.93;49.27
66722;SHT31;53633;49.932;10.884;2023-04-25T13:22:33;13.71;49.40
66722;SHT31;53633;49.932;10.884;2023-04-25T13:25:05;13.62;49.90
66722;SHT31;53633;49.932;10.884;2023-04-25T13:27:34;13.38;51.28
66722;SHT31;53633;49.932;10.884;2023-04-25T13:30:18;13.42;51.44
66722;SHT31;53633;49.932;10.884;2023-04-25T13:32:52;13.38;51.68
66722;SHT31;53633;49.932;10.884;2023-04-25T13:35:26;13.35;51.96
66722;SHT31;53633;49.932;10.884;2023-04-25T13:38:01;13.18;52.35
66722;SHT31;53633;49.932;10.884;2023-04-25T13:40:48;12.63;52.17
66722;SHT31;53633;49.932;10.884;2023-04-25T13:43:27;12.79;52.22
66722;SHT31;53633;49.932;10.884;2023-04-25T13:46:02;12.53;52.83
66722;SHT31;53633;49.932;10.884;2023-04-25T13:49:14;12.70;53.22
66722;SHT31;53633;49.932;10.884;2023-04-25T13:51:48;12.59;53.56
66722;SHT31;53633;49.932;10.884;2023-04-25T13:54:18;12.52;53.17
66722;SHT31;53633;49.932;10.884;2023-04-25T13:56:47;12.59;53.17
66722;SHT31;53633;49.932;10.884;2023-04-25T13:59:21;12.40;53.08
66722;SHT31;53633;49.932;10.884;2023-04-25T14:02:07;12.26;53.61
66722;SHT31;53633;49.932;10.884;2023-04-25T14:04:47;12.18;53.91
66722;SHT31;53633;49.932;10.884;2023-04-25T14:07:17;11.98;54.41
66722;SHT31;53633;49.932;10.884;2023-04-25T14:10:01;11.99;54.19
66722;SHT31;53633;49.932;10.884;2023-04-25T14:12:34;12.04;53.83
66722;SHT31;53633;49.932;10.884;2023-04-25T14:15:11;12.06;53.74
66722;SHT31;53633;49.932;10.884;2023-04-25T14:17:40;12.32;54.18
66722;SHT31;53633;49.932;10.884;2023-04-25T14:20:15;12.53;55.15
66722;SHT31;53633;49.932;10.884;2023-04-25T14:22:45;12.63;54.78
66722;SHT31;53633;49.932;10.884;2023-04-25T14:28:10;12.72;56.38
66722;SHT31;53633;49.932;10.884;2023-04-25T14:30:40;12.43;56.74
66722;SHT31;53633;49.932;10.884;2023-04-25T14:33:17;12.29;57.21
66722;SHT31;53633;49.932;10.884;2023-04-25T14:35:49;12.32;57.56
66722;SHT31;53633;49.932;10.884;2023-04-25T14:38:21;12.25;57.54
66722;SHT31;53633;49.932;10.884;2023-04-25T14:40:50;12.15;57.72
66722;SHT31;53633;49.932;10.884;2023-04-25T14:43:19;12.08;59.20
66722;SHT31;53633;49.932;10.884;2023-04-25T14:45:49;12.08;58.97
66722;SHT31;53633;49.932;10.884;2023-04-25T14:48:23;12.06;58.50
66722;SHT31;53633;49.932;10.884;2023-04-25T14:50:56;11.98;57.58
66722;SHT31;53633;49.932;10.884;2023-04-25T14:53:28;11.98;57.29
66722;SHT31;53633;49.932;10.884;2023-04-25T14:56:02;11.71;56.44
66722;SHT31;53633;49.932;10.884;2023-04-25T14:58:29;11.67;57.13
66722;SHT31;53633;49.932;10.884;2023-04-25T15:00:58;11.85;57.87
66722;SHT31;53633;49.932;10.884;2023-04-25T15:03:28;12.01;57.15
66722;SHT31;53633;49.932;10.884;2023-04-25T15:05:56;12.01;57.09
66722;SHT31;53633;49.932;10.884;2023-04-25T15:08:24;12.22;56.21
66722;SHT31;53633;49.932;10.884;2023-04-25T15:11:00;12.29;56.16
66722;SHT31;53633;49.932;10.884;2023-04-25T15:16:21;12.52;54.40
66722;SHT31;53633;49.932;10.884;2023-04-25T15:18:50;12.47;54.31
66722;SHT31;53633;49.932;10.884;2023-04-25T15:21:26;12.50;55.10
66722;SHT31;53633;49.932;10.884;2023-04-25T15:24:03;12.50;54.22
66722;SHT31;53633;49.932;10.884;2023-04-25T15:26:36;12.52;54.45
66722;SHT31;53633;49.932;10.884;2023-04-25T15:29:16;12.61;53.97
66722;SHT31;53633;49.932;10.884;2023-04-25T15:31:45;12.72;54.58
66722;SHT31;53633;49.932;10.884;2023-04-25T15:37:05;12.53;54.39
66722;SHT31;53633;49.932;10.884;2023-04-25T15:39:33;12.43;54.29
66722;SHT31;53633;49.932;10.884;2023-04-25T15:42:15;12.39;54.69
66722;SHT31;53633;49.932;10.884;2023-04-25T15:44:46;12.29;54.19
66722;SHT31;53633;49.932;10.884;2023-04-25T15:47:15;12.32;54.18
66722;SHT31;53633;49.932;10.884;2023-04-25T15:50:00;12.43;54.98
66722;SHT31;53633;49.932;10.884;2023-04-25T15:52:32;12.40;53.69
66722;SHT31;53633;49.932;10.884;2023-04-25T15:55:05;12.35;53.44
66722;SHT31;53633;49.932;10.884;2023-04-25T15:57:35;12.09;53.74
66722;SHT31;53633;49.932;10.884;2023-04-25T16:00:04;11.98;53.47
66722;SHT31;53633;49.932;10.884;2023-04-25T16:02:38;11.87;53.79
66722;SHT31;53633;49.932;10.884;2023-04-25T16:05:11;11.66;52.70